Air Resources Laboratory banner image
Air Resources Laboratory web site National Oceanic and Atmospheric Administration (NOAA)

ny metar


KALB 181551Z 01007KT 10SM FEW016 OVC022 22/19 A2985 RMK AO2 RAE32 SLP107 VCSH
 S-SW CB DSNT SE MOV SE P0000 T02220189=
KART 181556Z AUTO 02012KT 10SM BKN017 OVC022 21/17 A2993 RMK AO2 SLP132
 T02060167=
KBGM 181553Z 36009KT 10SM OVC009 20/18 A2990 RMK AO2 RAE06 CIG 007V014 SLP114
 P0000 T02000178=
KBNL 181555Z AUTO 25006KT 10SM SCT022 BKN027 OVC040 29/24 A3009 RMK AO2=
KBUF 181554Z 04011KT 10SM BKN026 22/17 A2995 RMK AO2 SLP140 T02220172 $=
KDKK 181553Z AUTO 01010KT 10SM BKN022 22/17 A2996 RMK AO2 SLP140 T02220172 $=
KDSV 181554Z AUTO 35009KT 10SM FEW027 BKN038 23/18 A2994 RMK AO2 SLP143
 T02280178=
KELM 181553Z 02007KT 10SM BKN019 BKN026 22/18 A2991 RMK AO2 SLP121 T02220178=
KELZ 181556Z AUTO 01005KT 10SM FEW004 BKN008 BKN020 21/19 A2998 RMK AO2
 RAE16B30E40 CIG 007V014 SLP138 P0000 T02110189 $=
KFOK 181553Z 22006KT 10SM FEW008 BKN090 26/22 A2985 RMK AO2 SLP107 T02560222=
KFRG 181553Z 22005KT 10SM FEW023 28/23 A2983 RMK AO2 SLP102 T02830228=
KFZY 181554Z AUTO 36010KT 10SM BKN014 OVC020 21/16 A2992 RMK AO2 SLP127
 T02060156=
KGFL 181553Z AUTO 05012KT 10SM BKN016 BKN024 OVC060 21/18 A2987 RMK AO2 SLP112
 T02060178=
KGTB 181556Z AUTO 04008KT 10SM OVC010 19/19 A2993 RMK AO2 SLP134 T01900190 TSNO
 $=
KHPN 181556Z 28007KT 230V300 10SM SCT019 SCT100 28/22 A2984 RMK AO2 SLP096
 T02780222 $=
KHTO 181555Z AUTO 23005KT 10SM SCT007 BKN100 BKN110 25/23 A2982 RMK AO2
 T02500231=
KHWV 181556Z AUTO 22009KT 10SM FEW009 27/25 A2983 RMK AO2 SLP101 T02720250 $=
KIAG 181553Z 05011KT 10SM OVC019 22/17 A2996 RMK AO2 SLP141 T02170167=
KISP 181556Z VRB04KT 10SM FEW011 SCT050 SCT130 BKN250 28/24 A2983 RMK AO2
 SLP099 TCU DSNT SE T02830239=
KITH 181556Z 35009KT 10SM BKN014 OVC020 21/18 A2992 RMK AO2 SLP126 T02060178=
KJFK 181551Z 22008KT 10SM FEW024 FEW110 SCT160 BKN250 28/24 A2984 RMK AO2
 SLP105 T02780244=
KJHW 181556Z AUTO 01009KT 10SM SCT019 BKN025 21/16 A2998 RMK AO2 SLP145
 T02110161=
KLGA 181551Z 26006KT 10SM SCT030 SCT120 BKN200 BKN280 29/21 A2982 RMK AO2
 SLP099 T02890206 $=
KMGJ 181554Z AUTO 20007KT 10SM FEW025 SCT045 28/23 A2982 RMK AO2 SLP095
 T02780228=
KMSS 181553Z AUTO 02009KT 10SM SCT025 22/17 A2995 RMK AO2 SLP139 T02220167=
KMSV 181556Z AUTO VRB04KT 10SM FEW016 24/22 A2988 RMK AO2 RAB11E39 SLP109 P0009
 T02440217=
KMTP 181554Z AUTO 23004KT 27/24 A2984 RMK AO1 SLP103 T02670244 $=
KNYC 181551Z AUTO 26006KT 9SM FEW025 27/23 A2986 RMK AO2 SLP102 T02720233 $=
KOGS 181555Z AUTO 03005KT 10SM CLR 22/16 A2994 RMK AO2 T02150155=
KOLE 181555Z AUTO 06006KT 10SM SCT010 BKN014 OVC024 19/18 A2997 RMK AO2=
KPBG 181553Z AUTO 34009KT 10SM OVC027 20/15 A2990 RMK AO2 SLP126 T02000150=
KPEO 181553Z AUTO 36005KT 10SM FEW013 SCT019 OVC028 21/17 A2994 RMK AO2 SLP131
 T02060172=
KPOU 181553Z 23007KT 10SM FEW021 27/22 A2980 RMK AO2 SLP088 T02720217=
KRME 181553Z 33005KT 10SM BKN018 22/18 A2989 RMK AO2 SLP119 T02170183=
KROC 181554Z 04010KT 10SM BKN014 OVC021 21/18 A2995 RMK AO2 SLP143 T02060183=
KSCH 181559Z 04009KT 5SM BR OVC009 21/19 A2986=
KSLK 181551Z AUTO 02008KT 10SM OVC014 17/14 A2993 RMK AO2 SLP130 T01720144=
KSWF 181545Z 24005KT 10SM SCT020 BKN040 26/23 A2985=
KSYR 181554Z 31005KT 10SM OVC013 19/18 A2990 RMK AO2 SLP119 T01940183 $=